createdAt,value
2023-03-15T00:00:59.500Z,3.23
2023-03-15T00:02:03.779Z,3.22
2023-03-15T00:03:08.033Z,3.24
2023-03-15T00:04:12.340Z,3.23
2023-03-15T00:05:16.473Z,3.22
2023-03-15T00:06:20.677Z,3.20
2023-03-15T00:07:24.920Z,3.18
2023-03-15T00:08:29.046Z,3.16
2023-03-15T00:09:33.216Z,3.16
2023-03-15T00:10:37.530Z,3.15
2023-03-15T00:11:41.685Z,3.14
2023-03-15T00:12:45.799Z,3.14
2023-03-15T00:13:50.035Z,3.12
2023-03-15T00:14:54.310Z,3.10
2023-03-15T00:15:58.686Z,3.09
2023-03-15T00:17:02.663Z,3.09
2023-03-15T00:18:09.862Z,3.09
2023-03-15T00:19:13.086Z,3.10
2023-03-15T00:20:17.337Z,3.10
2023-03-15T00:21:21.470Z,3.10
2023-03-15T00:22:25.614Z,3.11
2023-03-15T00:23:29.796Z,3.12
2023-03-15T00:24:34.006Z,3.13
2023-03-15T00:25:38.194Z,3.15
2023-03-15T00:26:42.332Z,3.15
2023-03-15T00:27:46.512Z,3.15
2023-03-15T00:28:50.562Z,3.14
2023-03-15T00:29:54.766Z,3.13
2023-03-15T00:30:59.028Z,3.11
2023-03-15T00:32:03.224Z,3.09
2023-03-15T00:33:07.383Z,3.07
2023-03-15T00:34:11.455Z,3.07
2023-03-15T00:35:15.763Z,3.07
2023-03-15T00:36:19.978Z,3.08
2023-03-15T00:37:24.240Z,3.08
2023-03-15T00:38:28.308Z,3.09
2023-03-15T00:39:32.517Z,3.09
2023-03-15T00:40:36.720Z,3.10
2023-03-15T00:41:46.947Z,3.11
2023-03-15T00:42:49.767Z,3.10
2023-03-15T00:43:53.848Z,3.11
2023-03-15T00:44:58.091Z,3.10
2023-03-15T00:46:02.329Z,3.09
2023-03-15T00:47:06.488Z,3.08
2023-03-15T00:48:10.681Z,3.08
2023-03-15T00:49:14.857Z,3.07
2023-03-15T00:50:19.134Z,3.07
2023-03-15T00:51:23.249Z,3.08
2023-03-15T00:52:27.603Z,3.09
2023-03-15T00:53:31.780Z,3.10
2023-03-15T00:54:35.909Z,3.11
2023-03-15T00:55:40.011Z,3.12
2023-03-15T00:56:44.292Z,3.13
2023-03-15T00:57:48.601Z,3.13
2023-03-15T00:58:52.548Z,3.13
2023-03-15T00:59:56.726Z,3.12
2023-03-15T01:01:00.945Z,3.12
2023-03-15T01:02:05.049Z,3.13
2023-03-15T01:03:09.399Z,3.12
2023-03-15T01:04:13.400Z,3.10
2023-03-15T01:05:17.710Z,3.08
2023-03-15T01:06:21.855Z,3.06
2023-03-15T01:07:26.015Z,3.05
2023-03-15T01:08:30.266Z,3.05
2023-03-15T01:09:34.315Z,3.04
2023-03-15T01:10:38.622Z,3.02
2023-03-15T01:11:42.804Z,3.00
2023-03-15T01:12:46.850Z,2.99
2023-03-15T01:13:51.099Z,2.98
2023-03-15T01:14:55.276Z,2.96
2023-03-15T01:15:59.467Z,2.95
2023-03-15T01:17:03.581Z,2.95
2023-03-15T01:18:07.711Z,2.94
2023-03-15T01:19:11.777Z,2.94
2023-03-15T01:20:16.017Z,2.93
2023-03-15T01:21:20.193Z,2.93
2023-03-15T01:22:24.295Z,2.92
2023-03-15T01:23:28.611Z,2.92
2023-03-15T01:24:32.580Z,2.91
2023-03-15T01:25:36.834Z,2.91
2023-03-15T01:26:41.032Z,2.92
2023-03-15T01:27:45.126Z,2.94
2023-03-15T01:28:49.254Z,2.99
2023-03-15T01:29:53.494Z,3.02
2023-03-15T01:30:59.466Z,3.04
2023-03-15T01:32:01.607Z,3.06
2023-03-15T01:33:05.886Z,3.07
2023-03-15T01:34:10.158Z,3.08
2023-03-15T01:35:14.262Z,3.08
2023-03-15T01:36:18.574Z,3.06
2023-03-15T01:37:22.647Z,3.05
2023-03-15T01:38:26.881Z,3.06
2023-03-15T01:39:31.265Z,3.06
2023-03-15T01:40:35.333Z,3.05
2023-03-15T01:41:39.533Z,3.05
2023-03-15T01:42:43.674Z,3.02
2023-03-15T01:43:47.753Z,3.01
2023-03-15T01:44:52.079Z,3.00
2023-03-15T01:45:56.241Z,3.00
2023-03-15T01:47:00.525Z,2.97
2023-03-15T01:48:04.597Z,2.96
2023-03-15T01:49:08.772Z,2.95
2023-03-15T01:50:12.908Z,2.94
2023-03-15T01:51:17.053Z,2.93
2023-03-15T01:52:21.152Z,2.92
2023-03-15T01:53:25.340Z,2.91
2023-03-15T01:54:29.502Z,2.91
2023-03-15T01:55:33.708Z,2.92
2023-03-15T01:56:37.904Z,2.92
2023-03-15T01:57:42.061Z,2.94
2023-03-15T01:58:46.264Z,2.96
2023-03-15T01:59:50.557Z,2.97
2023-03-15T02:00:54.714Z,2.97
2023-03-15T02:01:58.936Z,2.98
2023-03-15T02:03:03.001Z,2.99
2023-03-15T02:04:07.052Z,2.99
2023-03-15T02:05:11.293Z,3.00
2023-03-15T02:06:15.437Z,3.00
2023-03-15T02:07:19.642Z,3.02
2023-03-15T02:08:23.828Z,3.05
2023-03-15T02:09:27.919Z,3.08
2023-03-15T02:10:32.197Z,3.10
2023-03-15T02:11:36.351Z,3.10
2023-03-15T02:12:40.576Z,3.11
2023-03-15T02:13:44.660Z,3.12
2023-03-15T02:14:48.888Z,3.12
2023-03-15T02:15:53.066Z,3.12
2023-03-15T02:16:57.290Z,3.12
2023-03-15T02:18:01.567Z,3.12
2023-03-15T02:19:05.727Z,3.12
2023-03-15T02:20:09.919Z,3.12
2023-03-15T02:21:14.084Z,3.12
2023-03-15T02:22:18.284Z,3.10
2023-03-15T02:23:22.440Z,3.10
2023-03-15T02:24:26.585Z,3.12
2023-03-15T02:25:30.792Z,3.14
2023-03-15T02:26:34.943Z,3.14
2023-03-15T02:27:39.186Z,3.16
2023-03-15T02:28:43.448Z,3.17
2023-03-15T02:29:47.749Z,3.17
2023-03-15T02:30:51.920Z,3.17
2023-03-15T02:31:56.168Z,3.16
2023-03-15T02:33:00.310Z,3.15
2023-03-15T02:34:04.403Z,3.14
2023-03-15T02:35:08.696Z,3.14
2023-03-15T02:36:12.787Z,3.15
2023-03-15T02:37:16.943Z,3.17
2023-03-15T02:38:21.129Z,3.17
2023-03-15T02:39:25.280Z,3.16
2023-03-15T02:40:29.536Z,3.14
2023-03-15T02:41:33.742Z,3.13
2023-03-15T02:42:37.769Z,3.09
2023-03-15T02:43:42.011Z,3.05
2023-03-15T02:44:46.098Z,3.03
2023-03-15T02:46:04.517Z,3.01
2023-03-15T02:47:07.133Z,3.01
2023-03-15T02:48:11.247Z,3.02
2023-03-15T02:49:15.448Z,3.04
2023-03-15T02:50:19.661Z,3.05
2023-03-15T02:51:37.761Z,3.05
2023-03-15T02:52:40.692Z,3.05
2023-03-15T02:53:44.780Z,3.07
2023-03-15T02:54:49.002Z,3.08
2023-03-15T02:55:53.017Z,3.10
2023-03-15T02:56:57.344Z,3.11
2023-03-15T02:58:01.454Z,3.10
2023-03-15T02:59:05.656Z,3.12
2023-03-15T03:00:09.952Z,3.13
2023-03-15T03:01:14.231Z,3.15
2023-03-15T03:02:18.418Z,3.18
2023-03-15T03:03:22.444Z,3.20
2023-03-15T03:04:26.767Z,3.21
2023-03-15T03:05:30.855Z,3.20
2023-03-15T03:06:35.135Z,3.20
2023-03-15T03:07:39.334Z,3.20
2023-03-15T03:08:43.430Z,3.21
2023-03-15T03:09:47.696Z,3.21
2023-03-15T03:10:51.828Z,3.21
2023-03-15T03:11:56.153Z,3.21
2023-03-15T03:13:00.208Z,3.19
2023-03-15T03:14:04.453Z,3.15
2023-03-15T03:15:08.674Z,3.13
2023-03-15T03:16:12.924Z,3.10
2023-03-15T03:17:17.149Z,3.07
2023-03-15T03:18:21.190Z,3.07
2023-03-15T03:19:25.394Z,3.08
2023-03-15T03:20:29.640Z,3.08
2023-03-15T03:21:33.777Z,3.06
2023-03-15T03:22:38.029Z,3.04
2023-03-15T03:23:42.168Z,3.03
2023-03-15T03:24:46.386Z,3.02
2023-03-15T03:25:50.485Z,2.98
2023-03-15T03:26:54.685Z,2.96
2023-03-15T03:27:58.973Z,2.96
2023-03-15T03:29:03.116Z,2.96
2023-03-15T03:30:07.249Z,2.96
2023-03-15T03:31:11.474Z,2.97
2023-03-15T03:32:15.605Z,2.97
2023-03-15T03:33:19.658Z,2.96
2023-03-15T03:34:24.014Z,2.94
2023-03-15T03:35:28.207Z,2.93
2023-03-15T03:36:32.338Z,2.90
2023-03-15T03:37:36.470Z,2.89
2023-03-15T03:38:40.616Z,2.90
2023-03-15T03:39:44.698Z,2.88
2023-03-15T03:40:48.782Z,2.86
2023-03-15T03:41:53.029Z,2.84
2023-03-15T03:42:57.206Z,2.83
2023-03-15T03:44:01.284Z,2.83
2023-03-15T03:45:05.498Z,2.82
2023-03-15T03:46:10.625Z,2.82
2023-03-15T03:47:14.254Z,2.80
2023-03-15T03:48:18.418Z,2.78
2023-03-15T03:49:22.624Z,2.76
2023-03-15T03:50:26.838Z,2.76
2023-03-15T03:51:30.973Z,2.78
2023-03-15T03:52:35.157Z,2.81
2023-03-15T03:53:39.393Z,2.84
2023-03-15T03:54:43.554Z,2.86
2023-03-15T03:55:47.792Z,2.87
2023-03-15T03:56:51.901Z,2.88
2023-03-15T03:57:56.231Z,2.91
2023-03-15T03:59:00.319Z,2.92
2023-03-15T04:00:04.538Z,2.92
2023-03-15T04:01:08.553Z,2.94
2023-03-15T04:02:12.935Z,2.95
2023-03-15T04:03:31.146Z,2.98
2023-03-15T04:04:34.147Z,3.01
2023-03-15T04:05:41.246Z,3.05
2023-03-15T04:06:47.508Z,3.06
2023-03-15T04:07:53.697Z,3.07
2023-03-15T04:08:56.801Z,3.10
2023-03-15T04:10:01.008Z,3.12
2023-03-15T04:11:05.183Z,3.13
2023-03-15T04:12:09.372Z,3.14
2023-03-15T04:13:13.499Z,3.13
2023-03-15T04:14:17.690Z,3.10
2023-03-15T04:15:21.927Z,3.06
2023-03-15T04:16:26.138Z,3.02
2023-03-15T04:17:30.198Z,2.97
2023-03-15T04:18:34.448Z,2.93
2023-03-15T04:19:38.596Z,2.90
2023-03-15T04:20:42.718Z,2.88
2023-03-15T04:21:46.967Z,2.88
2023-03-15T04:22:51.176Z,2.87
2023-03-15T04:23:55.468Z,2.85
2023-03-15T04:24:59.339Z,2.84
2023-03-15T04:26:03.470Z,2.82
2023-03-15T04:27:07.723Z,2.81
2023-03-15T04:28:11.886Z,2.81
2023-03-15T04:29:16.005Z,2.81
2023-03-15T04:30:20.204Z,2.81
2023-03-15T04:31:24.385Z,2.81
2023-03-15T04:32:28.585Z,2.83
2023-03-15T04:33:32.846Z,2.85
2023-03-15T04:34:40.028Z,2.88
2023-03-15T04:35:43.353Z,2.90
2023-03-15T04:36:47.564Z,2.90
2023-03-15T04:37:54.741Z,2.89
2023-03-15T04:38:58.068Z,2.87
2023-03-15T04:40:02.182Z,2.85
2023-03-15T04:41:12.690Z,2.84
2023-03-15T04:42:15.490Z,2.85
2023-03-15T04:43:19.700Z,2.86
2023-03-15T04:44:23.979Z,2.86
2023-03-15T04:45:28.212Z,2.83
2023-03-15T04:46:32.392Z,2.81
2023-03-15T04:47:36.484Z,2.80
2023-03-15T04:48:40.688Z,2.81
2023-03-15T04:49:44.825Z,2.83
2023-03-15T04:50:48.993Z,2.84
2023-03-15T04:51:53.283Z,2.86
2023-03-15T04:52:57.387Z,2.84
2023-03-15T04:54:01.587Z,2.82
2023-03-15T04:55:05.741Z,2.82
2023-03-15T04:56:09.968Z,2.80
2023-03-15T04:57:14.122Z,2.79
2023-03-15T04:58:18.329Z,2.77
2023-03-15T04:59:22.502Z,2.76
2023-03-15T05:00:26.851Z,2.75
2023-03-15T05:01:30.824Z,2.76
2023-03-15T05:02:35.185Z,2.76
2023-03-15T05:03:39.423Z,2.76
2023-03-15T05:04:43.695Z,2.78
2023-03-15T05:06:01.763Z,2.80
2023-03-15T05:07:04.612Z,2.82
2023-03-15T05:08:08.823Z,2.81
2023-03-15T05:09:13.147Z,2.78
2023-03-15T05:10:17.220Z,2.76
2023-03-15T05:11:21.407Z,2.77
2023-03-15T05:12:25.648Z,2.79
2023-03-15T05:13:29.955Z,2.78
2023-03-15T05:14:34.118Z,2.76
2023-03-15T05:15:38.197Z,2.74
2023-03-15T05:16:42.569Z,2.71
2023-03-15T05:17:46.810Z,2.69
2023-03-15T05:19:04.908Z,2.67
2023-03-15T05:20:07.947Z,2.65
2023-03-15T05:21:12.008Z,2.64
2023-03-15T05:22:16.163Z,2.62
2023-03-15T05:23:20.307Z,2.61
2023-03-15T05:24:24.536Z,2.61
2023-03-15T05:25:28.722Z,2.62
2023-03-15T05:26:32.877Z,2.64
2023-03-15T05:27:37.089Z,2.64
2023-03-15T05:28:41.260Z,2.65
2023-03-15T05:29:45.421Z,2.66
2023-03-15T05:30:49.656Z,2.67
2023-03-15T05:31:54.005Z,2.67
2023-03-15T05:32:58.108Z,2.68
2023-03-15T05:34:02.316Z,2.69
2023-03-15T05:35:06.543Z,2.69
2023-03-15T05:36:10.693Z,2.69
2023-03-15T05:37:14.894Z,2.69
2023-03-15T05:38:19.081Z,2.71
2023-03-15T05:39:23.366Z,2.72
2023-03-15T05:40:27.500Z,2.72
2023-03-15T05:41:31.649Z,2.74
2023-03-15T05:42:35.832Z,2.74
2023-03-15T05:43:40.093Z,2.73
2023-03-15T05:44:44.259Z,2.71
2023-03-15T05:45:48.671Z,2.68
2023-03-15T05:46:52.829Z,2.68
2023-03-15T05:47:56.949Z,2.68
2023-03-15T05:49:01.172Z,2.69
2023-03-15T05:50:05.359Z,2.71
2023-03-15T05:51:09.657Z,2.72
2023-03-15T05:52:13.937Z,2.71
2023-03-15T05:53:18.095Z,2.69
2023-03-15T05:54:36.536Z,2.68
2023-03-15T05:55:39.689Z,2.67
2023-03-15T05:56:43.660Z,2.68
2023-03-15T05:57:47.896Z,2.69
2023-03-15T06:00:19.001Z,2.72
2023-03-15T06:01:23.359Z,2.74
2023-03-15T06:02:27.369Z,2.76
2023-03-15T06:03:31.575Z,2.77
2023-03-15T06:04:35.912Z,2.76
2023-03-15T06:05:40.048Z,2.75
2023-03-15T06:06:44.229Z,2.74
2023-03-15T06:07:48.380Z,2.74
2023-03-15T06:08:55.733Z,2.75
2023-03-15T06:09:59.005Z,2.76
2023-03-15T06:11:03.277Z,2.76
2023-03-15T06:12:07.529Z,2.76
2023-03-15T06:13:11.689Z,2.78
2023-03-15T06:14:15.945Z,2.81
2023-03-15T06:15:20.203Z,2.85
2023-03-15T06:16:24.425Z,2.92
2023-03-15T06:17:28.577Z,2.98
2023-03-15T06:18:32.804Z,3.05
2023-03-15T06:19:38.069Z,3.12
2023-03-15T06:20:41.277Z,3.16
2023-03-15T06:21:45.555Z,3.17
2023-03-15T06:22:55.846Z,3.21
2023-03-15T06:23:58.636Z,3.25
2023-03-15T06:25:02.902Z,3.28
2023-03-15T06:26:07.075Z,3.29
2023-03-15T06:27:11.294Z,3.29
2023-03-15T06:28:15.451Z,3.30
2023-03-15T06:29:19.659Z,3.32
2023-03-15T06:30:23.845Z,3.32
2023-03-15T06:31:28.048Z,3.35
2023-03-15T06:32:32.261Z,3.36
2023-03-15T06:33:36.398Z,3.39
2023-03-15T06:34:40.712Z,3.40
2023-03-15T06:35:44.897Z,3.43
2023-03-15T06:36:49.161Z,3.47
2023-03-15T06:37:53.397Z,3.49
2023-03-15T06:38:57.647Z,3.52
2023-03-15T06:40:01.801Z,3.54
2023-03-15T06:41:05.979Z,3.57
2023-03-15T06:42:10.388Z,3.58
2023-03-15T06:43:14.542Z,3.60
2023-03-15T06:44:18.698Z,3.58
2023-03-15T06:45:22.897Z,3.56
2023-03-15T06:46:27.229Z,3.53
2023-03-15T06:47:31.195Z,3.51
2023-03-15T06:48:35.525Z,3.49
2023-03-15T06:49:39.686Z,3.47
2023-03-15T06:50:47.231Z,3.43
2023-03-15T06:51:48.034Z,3.41
2023-03-15T06:52:52.352Z,3.40
2023-03-15T06:53:56.570Z,3.40
2023-03-15T06:55:00.789Z,3.40
2023-03-15T06:56:05.009Z,3.40
2023-03-15T06:57:09.303Z,3.42
2023-03-15T06:58:13.524Z,3.45
2023-03-15T06:59:17.686Z,3.48
2023-03-15T07:00:21.852Z,3.49
2023-03-15T07:01:26.056Z,3.50
2023-03-15T07:02:30.468Z,3.51
2023-03-15T07:03:34.541Z,3.53
2023-03-15T07:04:38.712Z,3.56
2023-03-15T07:05:43.023Z,3.58
2023-03-15T07:06:47.189Z,3.61
2023-03-15T07:07:51.491Z,3.61
2023-03-15T07:08:55.794Z,3.62
2023-03-15T07:09:59.916Z,3.63
2023-03-15T07:11:04.254Z,3.65
2023-03-15T07:12:08.376Z,3.65
2023-03-15T07:13:12.555Z,3.66
2023-03-15T07:14:16.799Z,3.66
2023-03-15T07:15:20.964Z,3.65
2023-03-15T07:16:25.265Z,3.66
2023-03-15T07:17:29.451Z,3.65
2023-03-15T07:18:36.635Z,3.65
2023-03-15T07:19:50.240Z,3.64
2023-03-15T07:20:44.219Z,3.63
2023-03-15T07:21:48.373Z,3.65
2023-03-15T07:22:52.650Z,3.66
2023-03-15T07:23:56.931Z,3.67
2023-03-15T07:25:01.100Z,3.69
2023-03-15T07:26:05.252Z,3.69
2023-03-15T07:27:09.492Z,3.68
2023-03-15T07:28:27.692Z,3.68
2023-03-15T07:29:30.658Z,3.68
2023-03-15T07:30:34.768Z,3.68
2023-03-15T07:31:38.936Z,3.69
2023-03-15T07:32:43.320Z,3.69
2023-03-15T07:33:47.402Z,3.69
2023-03-15T07:34:51.659Z,3.71
2023-03-15T07:35:55.870Z,3.72
2023-03-15T07:37:00.048Z,3.75
2023-03-15T07:38:04.272Z,3.77
2023-03-15T07:39:08.510Z,3.79
2023-03-15T07:40:12.911Z,3.81
2023-03-15T07:41:16.962Z,3.81
2023-03-15T07:42:24.183Z,3.82
2023-03-15T07:43:27.336Z,3.84
2023-03-15T07:44:31.572Z,3.86
2023-03-15T07:45:35.949Z,3.89
2023-03-15T07:46:40.028Z,3.92
2023-03-15T07:47:44.224Z,3.95
2023-03-15T07:48:48.376Z,3.96
2023-03-15T07:49:52.552Z,3.96
2023-03-15T07:50:56.751Z,3.98
2023-03-15T07:52:00.946Z,3.99
2023-03-15T07:53:05.251Z,4.01
2023-03-15T07:54:09.500Z,4.02
2023-03-15T07:55:13.664Z,4.02
2023-03-15T07:56:19.655Z,4.02
2023-03-15T07:57:22.204Z,4.03
2023-03-15T07:58:26.505Z,4.00
2023-03-15T07:59:30.762Z,4.00
2023-03-15T08:00:34.941Z,4.00
2023-03-15T08:01:39.240Z,4.00
2023-03-15T08:02:43.376Z,4.00
2023-03-15T08:03:47.508Z,4.01
2023-03-15T08:04:51.748Z,4.02
2023-03-15T08:05:56.024Z,4.05
2023-03-15T08:07:00.199Z,4.05
2023-03-15T08:08:04.463Z,4.05
2023-03-15T08:09:08.682Z,4.06
2023-03-15T08:10:12.872Z,4.06
2023-03-15T08:11:17.069Z,4.07
2023-03-15T08:12:21.263Z,4.09
2023-03-15T08:13:25.523Z,4.12
2023-03-15T08:14:29.720Z,4.14
2023-03-15T08:15:34.027Z,4.14
2023-03-15T08:16:44.385Z,4.15
2023-03-15T08:17:47.087Z,4.17
2023-03-15T08:18:51.413Z,4.19
2023-03-15T08:19:55.510Z,4.21
2023-03-15T08:20:59.696Z,4.23
2023-03-15T08:22:03.937Z,4.25
2023-03-15T08:23:08.091Z,4.25
2023-03-15T08:24:12.434Z,4.28
2023-03-15T08:25:16.730Z,4.29
2023-03-15T08:26:20.739Z,4.31
2023-03-15T08:27:24.967Z,4.33
2023-03-15T08:28:29.273Z,4.35
2023-03-15T08:29:33.431Z,4.36
2023-03-15T08:30:37.684Z,4.37
2023-03-15T08:31:42.008Z,4.36
2023-03-15T08:32:46.185Z,4.35
2023-03-15T08:33:50.293Z,4.36
2023-03-15T08:34:54.606Z,4.36
2023-03-15T08:35:58.966Z,4.36
2023-03-15T08:37:03.086Z,4.39
2023-03-15T08:38:07.241Z,4.41
2023-03-15T08:39:11.440Z,4.45
2023-03-15T08:40:15.810Z,4.50
2023-03-15T08:41:20.051Z,4.55
2023-03-15T08:42:24.417Z,4.59
2023-03-15T08:43:28.645Z,4.64
2023-03-15T08:44:34.552Z,4.69
2023-03-15T08:45:56.701Z,4.73
2023-03-15T08:46:55.267Z,4.77
2023-03-15T08:47:58.265Z,4.83
2023-03-15T08:49:02.332Z,4.89
2023-03-15T08:50:06.596Z,4.94
2023-03-15T08:51:10.723Z,4.97
2023-03-15T08:52:17.092Z,4.99
2023-03-15T08:53:19.232Z,5.01
2023-03-15T08:54:23.422Z,5.01
2023-03-15T08:55:27.769Z,4.99
2023-03-15T08:56:31.995Z,4.98
2023-03-15T08:57:36.137Z,4.97
2023-03-15T08:58:40.508Z,4.96
2023-03-15T08:59:44.720Z,4.95
2023-03-15T09:00:48.942Z,4.93
2023-03-15T09:01:53.283Z,4.91
2023-03-15T09:02:57.381Z,4.89
2023-03-15T09:04:01.701Z,4.88
2023-03-15T09:05:05.898Z,4.88
2023-03-15T09:06:10.159Z,4.88
2023-03-15T09:07:14.323Z,4.90
2023-03-15T09:08:18.639Z,4.91
2023-03-15T09:09:22.948Z,4.91
2023-03-15T09:10:27.266Z,4.92
2023-03-15T09:11:31.357Z,4.93
2023-03-15T09:12:35.651Z,4.92
2023-03-15T09:13:39.768Z,4.92
2023-03-15T09:14:44.050Z,4.92
2023-03-15T09:15:48.271Z,4.93
2023-03-15T09:16:52.630Z,4.93
2023-03-15T09:17:56.791Z,4.93
2023-03-15T09:19:01.098Z,4.93
2023-03-15T09:20:05.364Z,4.94
2023-03-15T09:21:09.624Z,4.96
2023-03-15T09:22:23.428Z,5.00
2023-03-15T09:23:17.957Z,5.06
2023-03-15T09:24:22.265Z,5.13
2023-03-15T09:25:26.565Z,5.22
2023-03-15T09:26:30.704Z,5.30
2023-03-15T09:27:34.997Z,5.34
2023-03-15T09:28:39.275Z,5.37
2023-03-15T09:29:43.551Z,5.37
2023-03-15T09:30:47.690Z,5.34
2023-03-15T09:31:51.971Z,5.31
2023-03-15T09:32:56.173Z,5.31
2023-03-15T09:34:00.321Z,5.31
2023-03-15T09:35:04.632Z,5.31
2023-03-15T09:36:08.904Z,5.32
2023-03-15T09:37:13.056Z,5.32
2023-03-15T09:38:17.314Z,5.32
2023-03-15T09:39:21.472Z,5.33
2023-03-15T09:40:25.766Z,5.33
2023-03-15T09:41:29.979Z,5.32
2023-03-15T09:42:34.312Z,5.32
2023-03-15T09:43:38.439Z,5.31
2023-03-15T09:44:42.661Z,5.31
2023-03-15T09:45:46.897Z,5.33
2023-03-15T09:46:51.219Z,5.37
2023-03-15T09:47:55.329Z,5.41
2023-03-15T09:48:59.729Z,5.46
2023-03-15T09:50:03.920Z,5.51
2023-03-15T09:51:08.144Z,5.55
2023-03-15T09:52:12.432Z,5.59
2023-03-15T09:53:16.631Z,5.62
2023-03-15T09:54:20.870Z,5.67
2023-03-15T09:55:24.960Z,5.72
2023-03-15T09:56:29.260Z,5.79
2023-03-15T09:57:33.571Z,5.85
2023-03-15T09:58:37.801Z,5.90
2023-03-15T09:59:43.013Z,5.90
2023-03-15T10:00:46.420Z,5.88
2023-03-15T10:01:50.624Z,5.89
2023-03-15T10:02:54.835Z,5.88
2023-03-15T10:03:59.156Z,5.86
2023-03-15T10:05:03.409Z,5.85
2023-03-15T10:06:08.649Z,5.86
2023-03-15T10:07:12.490Z,5.85
2023-03-15T10:08:16.665Z,5.86
2023-03-15T10:09:20.960Z,5.86
2023-03-15T10:10:28.225Z,5.86
2023-03-15T10:11:31.458Z,5.84
2023-03-15T10:12:35.752Z,5.80
2023-03-15T10:13:39.937Z,5.75
2023-03-15T10:14:44.116Z,5.70
2023-03-15T10:15:48.522Z,5.67
2023-03-15T10:16:52.680Z,5.67
2023-03-15T10:17:56.996Z,5.68
2023-03-15T10:19:01.241Z,5.70
2023-03-15T10:20:05.373Z,5.76
2023-03-15T10:21:09.562Z,5.83
2023-03-15T10:22:13.802Z,5.89
2023-03-15T10:23:18.240Z,5.96
2023-03-15T10:24:22.326Z,6.03
2023-03-15T10:25:26.626Z,6.07
2023-03-15T10:26:30.966Z,6.09
2023-03-15T10:27:35.112Z,6.09
2023-03-15T10:28:39.319Z,6.06
2023-03-15T10:29:49.592Z,6.05
2023-03-15T10:30:52.470Z,6.05
2023-03-15T10:31:56.747Z,6.11
2023-03-15T10:33:00.926Z,6.18
2023-03-15T10:34:05.088Z,6.25
2023-03-15T10:35:12.332Z,6.30
2023-03-15T10:36:15.639Z,6.36
2023-03-15T10:37:19.797Z,6.41
2023-03-15T10:38:24.062Z,6.48
2023-03-15T10:39:28.248Z,6.53
2023-03-15T10:40:32.414Z,6.59
2023-03-15T10:41:36.740Z,6.63
2023-03-15T10:42:40.913Z,6.67
2023-03-15T10:43:45.152Z,6.73
2023-03-15T10:44:49.344Z,6.79
2023-03-15T10:45:53.584Z,6.81
2023-03-15T10:46:57.843Z,6.79
2023-03-15T10:48:02.122Z,6.78
2023-03-15T10:49:06.201Z,6.79
2023-03-15T10:50:10.492Z,6.79
2023-03-15T10:51:14.640Z,6.81
2023-03-15T10:52:18.854Z,6.83
2023-03-15T10:53:22.968Z,6.85
2023-03-15T10:54:27.297Z,6.90
2023-03-15T10:55:31.519Z,6.96
2023-03-15T10:56:38.686Z,6.98
2023-03-15T10:57:42.029Z,6.98
2023-03-15T10:58:47.804Z,6.98
2023-03-15T10:59:50.449Z,7.01
2023-03-15T11:00:54.641Z,7.02
2023-03-15T11:01:58.852Z,7.05
2023-03-15T11:03:03.117Z,7.06
2023-03-15T11:04:07.205Z,7.11
2023-03-15T11:05:11.433Z,7.18
2023-03-15T11:06:15.654Z,7.18
2023-03-15T11:07:19.989Z,7.20
2023-03-15T11:09:51.295Z,7.17
2023-03-15T11:10:55.550Z,7.15
2023-03-15T11:11:59.832Z,7.15
2023-03-15T11:13:03.924Z,7.13
2023-03-15T11:14:08.218Z,7.12
2023-03-15T11:15:12.490Z,7.09
2023-03-15T11:16:16.663Z,7.08
2023-03-15T11:17:20.826Z,7.05
2023-03-15T11:18:25.165Z,7.04
2023-03-15T11:19:29.367Z,7.02
2023-03-15T11:20:33.533Z,7.01
2023-03-15T11:21:37.791Z,7.02
2023-03-15T11:22:41.982Z,7.03
2023-03-15T11:23:46.229Z,7.04
2023-03-15T11:24:50.452Z,7.03
2023-03-15T11:25:54.684Z,6.96
2023-03-15T11:26:58.891Z,6.87
2023-03-15T11:28:03.189Z,6.78
2023-03-15T11:29:07.397Z,6.72
2023-03-15T11:30:11.603Z,6.68
2023-03-15T11:31:15.856Z,6.66
2023-03-15T11:32:19.968Z,6.67
2023-03-15T11:33:30.224Z,6.67
2023-03-15T11:34:32.976Z,6.70
2023-03-15T11:35:37.150Z,6.72
2023-03-15T11:36:41.411Z,6.75
2023-03-15T11:37:45.531Z,6.76
2023-03-15T11:38:49.752Z,6.72
2023-03-15T11:40:05.054Z,6.68
2023-03-15T11:40:58.168Z,6.65
2023-03-15T11:42:02.500Z,6.60
2023-03-15T11:43:06.617Z,6.55
2023-03-15T11:44:10.719Z,6.47
2023-03-15T11:45:15.012Z,6.30
2023-03-15T11:46:19.170Z,6.11
2023-03-15T11:47:23.358Z,5.88
2023-03-15T11:48:27.518Z,5.64
2023-03-15T11:49:31.705Z,5.46
2023-03-15T11:50:35.816Z,5.32
2023-03-15T11:51:40.051Z,5.24
2023-03-15T11:52:44.143Z,5.20
2023-03-15T11:53:48.459Z,5.20
2023-03-15T11:54:52.785Z,5.22
2023-03-15T11:55:57.019Z,5.30
2023-03-15T11:57:01.147Z,5.40
2023-03-15T11:58:05.397Z,5.54
2023-03-15T11:59:09.586Z,5.65
2023-03-15T12:00:13.915Z,5.74
2023-03-15T12:01:18.086Z,5.85
2023-03-15T12:02:22.383Z,5.95
2023-03-15T12:03:26.696Z,6.04
2023-03-15T12:04:30.835Z,6.14
2023-03-15T12:05:35.072Z,6.25
2023-03-15T12:06:39.422Z,6.35
2023-03-15T12:07:43.639Z,6.45
2023-03-15T12:08:47.753Z,6.59
2023-03-15T12:09:52.126Z,6.75
2023-03-15T12:10:56.279Z,6.89
2023-03-15T12:12:00.530Z,7.02
2023-03-15T12:13:04.731Z,7.14
2023-03-15T12:14:09.014Z,7.26
2023-03-15T12:15:13.390Z,7.40
2023-03-15T12:16:17.712Z,7.46
2023-03-15T12:17:21.924Z,7.50
2023-03-15T12:18:26.137Z,7.59
2023-03-15T12:19:30.326Z,7.73
2023-03-15T12:20:34.589Z,7.81
2023-03-15T12:21:38.781Z,7.87
2023-03-15T12:22:43.072Z,7.91
2023-03-15T12:23:47.253Z,7.94
2023-03-15T12:24:51.461Z,8.03
2023-03-15T12:25:55.762Z,8.08
2023-03-15T12:26:59.958Z,8.15
2023-03-15T12:28:07.181Z,8.28
2023-03-15T12:29:10.465Z,8.40
2023-03-15T12:30:14.811Z,8.56
2023-03-15T12:31:19.017Z,8.76
2023-03-15T12:32:23.195Z,8.96
2023-03-15T12:33:27.452Z,9.18
2023-03-15T12:34:31.640Z,9.35
2023-03-15T12:35:35.951Z,9.47
2023-03-15T12:36:40.115Z,9.53
2023-03-15T12:37:44.367Z,9.51
2023-03-15T12:38:48.573Z,9.48
2023-03-15T12:39:52.955Z,9.51
2023-03-15T12:40:57.117Z,9.61
2023-03-15T12:42:15.469Z,9.53
2023-03-15T12:43:18.634Z,9.34
2023-03-15T12:44:22.878Z,9.14
2023-03-15T12:45:27.056Z,9.05
2023-03-15T12:46:31.263Z,8.93
2023-03-15T12:47:35.586Z,8.84
2023-03-15T12:48:39.742Z,8.84
2023-03-15T12:49:43.980Z,8.92
2023-03-15T12:50:48.069Z,8.93
2023-03-15T12:51:52.287Z,8.96
2023-03-15T12:52:56.596Z,8.96
2023-03-15T12:54:00.869Z,8.85
2023-03-15T12:55:05.109Z,8.70
2023-03-15T12:56:09.261Z,8.56
2023-03-15T12:57:13.520Z,8.45
2023-03-15T12:58:17.834Z,8.34
2023-03-15T12:59:21.996Z,8.27
2023-03-15T13:00:26.190Z,8.22
2023-03-15T13:01:30.557Z,8.15
2023-03-15T13:02:44.142Z,8.07
2023-03-15T13:03:38.859Z,8.04
2023-03-15T13:04:43.041Z,8.00
2023-03-15T13:05:54.510Z,7.95
2023-03-15T13:06:51.420Z,7.86
2023-03-15T13:07:55.641Z,7.78
2023-03-15T13:08:59.832Z,7.74
2023-03-15T13:10:04.102Z,7.70
2023-03-15T13:11:08.369Z,7.67
2023-03-15T13:12:12.599Z,7.67
2023-03-15T13:13:30.851Z,7.76
2023-03-15T13:14:33.889Z,7.96
2023-03-15T13:15:40.485Z,8.13
2023-03-15T13:16:42.335Z,8.33
2023-03-15T13:17:46.541Z,8.46
2023-03-15T13:18:50.762Z,8.55
2023-03-15T13:19:55.023Z,8.61
2023-03-15T13:20:59.231Z,8.63
2023-03-15T13:22:03.574Z,8.57
2023-03-15T13:23:07.736Z,8.51
2023-03-15T13:24:12.027Z,8.46
2023-03-15T13:25:16.337Z,8.38
2023-03-15T13:26:20.656Z,8.28
2023-03-15T13:27:24.788Z,8.20
2023-03-15T13:28:29.008Z,8.12
2023-03-15T13:29:33.354Z,8.07
2023-03-15T13:30:37.563Z,8.02
2023-03-15T13:31:41.767Z,7.97
2023-03-15T13:32:46.029Z,7.90
2023-03-15T13:33:50.256Z,7.82
2023-03-15T13:34:54.433Z,7.72
2023-03-15T13:35:58.742Z,7.67
2023-03-15T13:37:02.875Z,7.61
2023-03-15T13:38:07.078Z,7.56
2023-03-15T13:39:11.270Z,7.49
2023-03-15T13:40:15.475Z,7.43
2023-03-15T13:41:19.663Z,7.38
2023-03-15T13:42:23.888Z,7.34
2023-03-15T13:43:34.047Z,7.31
2023-03-15T13:44:36.788Z,7.32
2023-03-15T13:45:40.994Z,7.34
2023-03-15T13:46:45.232Z,7.39
2023-03-15T13:47:49.413Z,7.48
2023-03-15T13:48:53.597Z,7.59
2023-03-15T13:49:57.794Z,7.64
2023-03-15T13:51:02.050Z,7.67
2023-03-15T13:52:06.305Z,7.68
2023-03-15T13:53:10.575Z,7.68
2023-03-15T13:54:14.757Z,7.67
2023-03-15T13:55:19.066Z,7.63
2023-03-15T13:56:23.240Z,7.56
2023-03-15T13:57:27.451Z,7.48
2023-03-15T13:58:37.672Z,7.44
2023-03-15T13:59:54.511Z,7.37
2023-03-15T14:00:57.390Z,7.30
2023-03-15T14:02:01.695Z,7.26
2023-03-15T14:03:05.877Z,7.22
2023-03-15T14:04:10.080Z,7.15
2023-03-15T14:05:14.322Z,7.09
2023-03-15T14:06:18.614Z,7.02
2023-03-15T14:07:22.787Z,6.95
2023-03-15T14:08:27.036Z,6.90
2023-03-15T14:09:31.172Z,6.87
2023-03-15T14:10:35.388Z,6.85
2023-03-15T14:11:39.563Z,6.80
2023-03-15T14:12:43.801Z,6.76
2023-03-15T14:13:47.955Z,6.73
2023-03-15T14:14:52.262Z,6.69
2023-03-15T14:15:56.532Z,6.67
2023-03-15T14:17:05.798Z,6.67
2023-03-15T14:18:04.896Z,6.67
2023-03-15T14:19:09.195Z,6.68
2023-03-15T14:20:13.425Z,6.68
2023-03-15T14:21:17.618Z,6.66